Time;durP1;ratioP1;P1;durP2;ratioP2;P2;SDS_P1;SDS_P2;PMS_P1;PMS_P2;Temp;Humidity;BMP_temperature;BMP_pressure;BME280_temperature;BME280_humidity;BME280_pressure;Samples;Min_cycle;Max_cycle;Signal;HPM_P1;HPM_P2
2021/01/09 00:00:08;;;;;;;26.48;15.57;;;6.60;61.20;;;;;;5093756;28;20036;-66
2021/01/09 00:02:40;;;;;;;25.88;14.30;;;;;;;;;;5094571;28;20039;-65
2021/01/09 00:05:07;;;;;;;30.77;15.23;;;;;;;;;;5094142;28;20039;-65
2021/01/09 00:07:34;;;;;;;27.20;13.75;;;;;;;;;;5094320;28;20067;-66
2021/01/09 00:10:00;;;;;;;29.70;15.20;;;6.50;61.50;;;;;;5094184;28;20032;-65
2021/01/09 00:12:27;;;;;;;26.33;14.65;;;;;;;;;;5094185;28;20079;-65
2021/01/09 00:14:54;;;;;;;25.88;13.63;;;;;;;;;;5093551;28;20111;-65
2021/01/09 00:17:20;;;;;;;30.67;13.77;;;;;;;;;;5094078;28;20503;-64
2021/01/09 00:19:46;;;;;;;27.83;14.35;;;;;;;;;;5075788;28;20039;-65
2021/01/09 00:22:13;;;;;;;28.77;14.30;;;;;;;;;;5093622;28;20055;-66
2021/01/09 00:24:39;;;;;;;29.77;15.13;;;;;;;;;;5094085;28;20068;-66
2021/01/09 00:27:12;;;;;;;24.20;13.98;;;6.40;61.50;;;;;;5094169;28;20024;-66
2021/01/09 00:29:41;;;;;;;25.90;14.45;;;6.50;61.40;;;;;;5066040;28;20077;-65
2021/01/09 00:32:08;;;;;;;28.42;13.98;;;;;;;;;;5093958;28;20492;-66
2021/01/09 00:34:34;;;;;;;33.78;14.10;;;;;;;;;;5093560;28;20095;-66
2021/01/09 00:37:00;;;;;;;26.85;14.10;;;;;;;;;;5093860;28;20556;-66
2021/01/09 00:39:28;;;;;;;24.02;13.10;;;;;;;;;;5093812;28;20032;-66
2021/01/09 00:41:55;;;;;;;34.22;15.45;;;;;;;;;;5093699;28;20121;-66
2021/01/09 00:44:21;;;;;;;28.75;14.50;;;;;;;;;;5092930;28;20024;-66
2021/01/09 00:46:47;;;;;;;27.90;14.02;;;;;;;;;;5093681;28;20039;-66
2021/01/09 00:49:13;;;;;;;28.90;14.45;;;;;;;;;;5093477;28;20434;-66
2021/01/09 00:51:40;;;;;;;32.58;15.05;;;;;;;;;;5093079;28;20032;-66
2021/01/09 00:54:06;;;;;;;32.53;15.13;;;;;;;;;;5093469;28;20078;-67
2021/01/09 00:56:32;;;;;;;26.60;14.02;;;;;;;;;;5093343;28;20024;-66
2021/01/09 00:58:58;;;;;;;29.55;13.20;;;;;;;;;;5092993;28;20024;-66
2021/01/09 01:01:25;;;;;;;31.08;13.95;;;;;;;;;;5093217;28;20036;-67
2021/01/09 01:03:51;;;;;;;26.42;14.13;;;;;;;;;;5093098;28;20055;-66
2021/01/09 01:06:23;;;;;;;28.75;14.35;;;6.50;61.50;;;;;;5092984;28;20476;-66
2021/01/09 01:08:49;;;;;;;32.25;13.90;;;;;;;;;;5092794;28;20388;-66
2021/01/09 01:11:24;;;;;;;29.25;14.70;;;6.50;61.10;;;;;;5093250;28;20031;-66
2021/01/09 01:13:50;;;;;;;31.48;14.05;;;6.50;61.30;;;;;;5092256;28;20105;-66
2021/01/09 01:16:17;;;;;;;29.92;13.25;;;;;;;;;;5093126;28;20036;-65
2021/01/09 01:18:43;;;;;;;28.67;13.45;;;;;;;;;;5092382;28;20028;-65
2021/01/09 01:21:09;;;;;;;27.20;13.63;;;;;;;;;;5092707;28;20529;-67
2021/01/09 01:23:35;;;;;;;23.90;12.77;;;;;;;;;;5092974;28;20036;-66
2021/01/09 01:26:02;;;;;;;35.92;13.68;;;;;;;;;;5092799;28;20044;-66
2021/01/09 01:28:28;;;;;;;31.60;14.35;;;;;;;;;;5092314;28;20063;-66
2021/01/09 01:30:55;;;;;;;26.17;13.05;;;;;;;;;;5092568;28;20059;-66
2021/01/09 01:33:21;;;;;;;24.40;13.27;;;;;;;;;;5092684;28;20373;-66
2021/01/09 01:35:48;;;;;;;25.85;14.48;;;6.40;60.90;;;;;;5092325;28;20060;-66
2021/01/09 01:38:15;;;;;;;31.92;13.23;;;6.30;60.80;;;;;;5092339;28;20043;-66
2021/01/09 01:40:41;;;;;;;25.83;14.02;;;;;;;;;;5092498;28;20085;-65
2021/01/09 01:43:13;;;;;;;24.90;12.90;;;6.30;61.00;;;;;;5092110;28;20103;-66
2021/01/09 01:45:40;;;;;;;43.63;13.43;;;;;;;;;;5092373;28;20040;-65
2021/01/09 01:48:07;;;;;;;27.48;12.88;;;6.20;60.70;;;;;;5092230;28;20039;-66
2021/01/09 01:50:34;;;;;;;26.33;12.45;;;;;;;;;;5092626;28;20028;-66
2021/01/09 01:53:01;;;;;;;29.40;13.40;;;;;;;;;;5091953;28;20467;-66
2021/01/09 01:55:28;;;;;;;27.80;13.93;;;6.20;60.40;;;;;;5092000;28;20040;-66
2021/01/09 01:57:54;;;;;;;28.58;13.57;;;;;;;;;;5092049;28;20441;-66
2021/01/09 02:00:24;;;;;;;28.73;14.93;;;;;;;;;;5092152;28;20052;-66
2021/01/09 02:02:51;;;;;;;27.00;12.75;;;6.20;60.50;;;;;;5073378;28;20079;-66
2021/01/09 02:05:25;;;;;;;26.95;13.70;;;6.20;60.50;;;;;;5076401;28;20045;-64
2021/01/09 02:07:56;;;;;;;32.60;15.02;;;6.20;60.70;;;;;;5070154;28;20078;-66
2021/01/09 02:10:24;;;;;;;30.38;15.20;;;6.10;60.60;;;;;;5070987;28;20032;-66
2021/01/09 02:13:12;;;;;;;32.50;14.60;;;6.10;60.50;;;;;;5071485;28;20108;-66
2021/01/09 02:15:40;;;;;;;28.10;15.70;;;6.10;60.40;;;;;;5071409;28;20372;-66
2021/01/09 02:18:06;;;;;;;29.42;14.52;;;;;;;;;;5071648;28;20446;-66
2021/01/09 02:20:34;;;;;;;27.08;13.82;;;6.00;60.70;;;;;;5071589;28;20537;-66
2021/01/09 02:23:02;;;;;;;29.48;13.75;;;6.00;61.40;;;;;;5071302;28;20047;-66
2021/01/09 02:25:28;;;;;;;28.63;14.20;;;;;;;;;;5070995;28;20125;-66
2021/01/09 02:27:55;;;;;;;26.90;14.20;;;;;;;;;;5071254;28;20028;-68
2021/01/09 02:30:29;;;;;;;29.30;14.23;;;6.00;61.20;;;;;;5070570;28;20531;-65
2021/01/09 02:33:02;;;;;;;31.27;14.75;;;5.90;61.20;;;;;;5071549;28;20037;-65
2021/01/09 02:35:30;;;;;;;29.27;13.63;;;5.90;61.10;;;;;;5071498;28;20047;-67
2021/01/09 02:37:57;;;;;;;29.17;14.48;;;;;;;;;;5071062;28;20068;-66
2021/01/09 02:40:23;;;;;;;33.63;15.48;;;;;;;;;;5070692;28;20024;-65
2021/01/09 02:42:49;;;;;;;26.30;13.98;;;;;;;;;;5070919;28;20028;-66
2021/01/09 02:45:16;;;;;;;27.38;15.10;;;;;;;;;;5071514;28;20032;-65
2021/01/09 02:47:42;;;;;;;29.80;14.23;;;;;;;;;;5071529;28;20112;-65
2021/01/09 02:50:12;;;;;;;31.02;14.80;;;5.70;61.70;;;;;;5071283;28;20064;-65
2021/01/09 02:52:41;;;;;;;32.40;15.63;;;5.80;61.70;;;;;;5071201;28;20059;-64
2021/01/09 02:55:08;;;;;;;34.78;14.50;;;5.80;61.70;;;;;;5070551;28;20025;-66
2021/01/09 02:57:35;;;;;;;30.05;13.73;;;;;;;;;;5071246;28;20488;-66
2021/01/09 03:00:01;;;;;;;35.22;16.08;;;;;;;;;;5071248;28;20496;-66
2021/01/09 03:02:27;;;;;;;33.40;15.85;;;;;;;;;;5071385;28;20097;-67
2021/01/09 03:04:54;;;;;;;38.08;14.02;;;;;;;;;;5070934;28;20071;-67
2021/01/09 03:07:20;;;;;;;24.23;13.68;;;;;;;;;;5071131;28;20040;-67
2021/01/09 03:09:46;;;;;;;27.80;15.43;;;;;;;;;;5070530;28;20035;-66
2021/01/09 03:12:13;;;;;;;28.30;14.45;;;;;;;;;;5070791;28;20039;-66
2021/01/09 03:14:39;;;;;;;28.73;13.98;;;;;;;;;;5070827;28;20028;-64
2021/01/09 03:17:05;;;;;;;33.55;15.07;;;;;;;;;;5053145;28;20033;-67
2021/01/09 03:19:32;;;;;;;33.13;14.27;;;;;;;;;;5071026;28;20388;-65
2021/01/09 03:21:58;;;;;;;29.85;14.32;;;;;;;;;;5071085;28;20047;-64
2021/01/09 03:24:24;;;;;;;30.58;16.05;;;;;;;;;;5070309;28;20028;-67
2021/01/09 03:26:51;;;;;;;34.95;15.10;;;;;;;;;;5070703;28;20124;-67
2021/01/09 03:29:17;;;;;;;27.48;14.25;;;;;;;;;;5070554;28;20557;-64
2021/01/09 03:31:43;;;;;;;28.90;14.40;;;;;;;;;;5071113;28;20090;-67
2021/01/09 03:34:10;;;;;;;31.55;15.73;;;;;;;;;;5070967;28;20036;-67
2021/01/09 03:36:36;;;;;;;28.95;14.57;;;;;;;;;;5070832;28;20473;-67
2021/01/09 03:39:02;;;;;;;32.38;15.80;;;5.80;60.60;;;;;;5070430;28;20151;-65
2021/01/09 03:41:29;;;;;;;31.30;15.75;;;;;;;;;;5073927;28;20025;-67
2021/01/09 03:43:55;;;;;;;32.55;15.30;;;;;;;;;;5074508;28;20438;-66
2021/01/09 03:46:21;;;;;;;30.90;16.33;;;;;;;;;;5074554;28;20032;-66
2021/01/09 03:48:47;;;;;;;30.50;14.93;;;;;;;;;;5074552;28;20078;-65
2021/01/09 03:51:14;;;;;;;30.63;15.18;;;;;;;;;;5069094;28;20021;-65
2021/01/09 03:53:40;;;;;;;31.08;16.23;;;;;;;;;;5070789;28;20044;-65
2021/01/09 03:56:06;;;;;;;35.20;15.80;;;;;;;;;;5074317;28;20498;-66
2021/01/09 03:58:33;;;;;;;34.55;15.23;;;;;;;;;;5074223;28;20115;-66
2021/01/09 04:00:59;;;;;;;34.17;16.38;;;;;;;;;;5074581;28;20043;-65
2021/01/09 04:03:25;;;;;;;32.33;15.20;;;;;;;;;;5060351;28;20430;-66
2021/01/09 04:05:51;;;;;;;31.25;14.93;;;;;;;;;;5073719;28;20068;-66
2021/01/09 04:08:18;;;;;;;31.65;16.33;;;;;;;;;;5073968;28;20021;-65
2021/01/09 04:10:44;;;;;;;29.75;15.02;;;;;;;;;;5074032;28;20032;-66
2021/01/09 04:13:10;;;;;;;38.85;17.20;;;;;;;;;;5073794;28;20472;-65
2021/01/09 04:15:37;;;;;;;35.25;15.80;;;;;;;;;;5073856;28;20036;-66
2021/01/09 04:18:03;;;;;;;31.80;16.40;;;;;;;;;;5074189;28;20514;-65
2021/01/09 04:20:29;;;;;;;37.80;16.30;;;;;;;;;;5073463;28;20040;-66
2021/01/09 04:22:55;;;;;;;36.35;15.95;;;;;;;;;;5073802;28;20055;-66
2021/01/09 04:25:22;;;;;;;35.72;18.67;;;;;;;;;;5073750;28;20036;-65
2021/01/09 04:27:48;;;;;;;33.58;16.35;;;;;;;;;;5073709;28;20047;-66
2021/01/09 04:30:15;;;;;;;39.45;18.60;;;;;;;;;;5074162;28;20044;-65
2021/01/09 04:32:41;;;;;;;41.28;16.90;;;;;;;;;;5073732;28;20035;-66
2021/01/09 04:35:07;;;;;;;32.88;16.95;;;;;;;;;;5073295;28;20037;-65
2021/01/09 04:37:38;;;;;;;31.77;16.45;;;;;;;;;;5073522;28;20495;-66
2021/01/09 04:40:06;;;;;;;38.03;16.77;;;5.30;62.30;;;;;;5073521;28;20040;-66
2021/01/09 04:42:36;;;;;;;36.25;16.80;;;5.20;62.40;;;;;;5073470;28;20039;-65
2021/01/09 04:45:03;;;;;;;35.58;17.35;;;5.20;62.30;;;;;;5073313;28;20040;-66
2021/01/09 04:47:31;;;;;;;36.83;17.65;;;5.20;62.50;;;;;;5073107;28;20103;-65
2021/01/09 04:49:57;;;;;;;50.17;18.65;;;;;;;;;;5073080;28;20021;-65
2021/01/09 04:52:23;;;;;;;43.33;17.85;;;;;;;;;;5072402;28;20098;-65
2021/01/09 04:54:51;;;;;;;45.63;18.50;;;5.00;63.00;;;;;;5073019;28;20043;-65
2021/01/09 04:57:18;;;;;;;52.58;18.15;;;;;;;;;;5073038;28;20336;-66
2021/01/09 04:59:44;;;;;;;51.35;17.17;;;;;;;;;;5073265;28;20029;-65
2021/01/09 05:02:13;;;;;;;54.05;19.38;;;4.70;63.80;;;;;;5073240;28;20040;-66
2021/01/09 05:04:44;;;;;;;47.55;19.20;;;4.60;64.00;;;;;;5072442;28;20032;-65
2021/01/09 05:07:11;;;;;;;47.00;19.33;;;;;;;;;;5072984;28;20114;-65
2021/01/09 05:09:37;;;;;;;39.85;17.92;;;;;;;;;;5072611;28;20032;-65
2021/01/09 05:12:04;;;;;;;41.00;17.70;;;;;;;;;;5072763;28;20060;-68
2021/01/09 05:14:30;;;;;;;40.22;18.00;;;;;;;;;;5054759;28;20040;-65
2021/01/09 05:16:59;;;;;;;32.90;17.25;;;4.70;64.40;;;;;;5072597;28;20127;-64
2021/01/09 05:19:29;;;;;;;35.13;18.00;;;4.80;64.40;;;;;;5072434;28;20052;-66
2021/01/09 05:22:01;;;;;;;42.17;18.08;;;4.80;64.40;;;;;;5072358;28;20032;-64
2021/01/09 05:24:28;;;;;;;34.15;16.90;;;;;;;;;;5072573;28;20086;-63
2021/01/09 05:26:54;;;;;;;41.53;16.88;;;;;;;;;;5072691;28;20488;-65
2021/01/09 05:29:21;;;;;;;37.45;16.83;;;;;;;;;;5054089;28;20527;-65
2021/01/09 05:31:48;;;;;;;32.72;16.45;;;;;;;;;;5072527;28;20122;-65
2021/01/09 05:34:14;;;;;;;38.03;16.20;;;;;;;;;;5071672;28;20093;-65
2021/01/09 05:36:40;;;;;;;33.60;15.13;;;;;;;;;;5086251;28;20055;-64
2021/01/09 05:39:07;;;;;;;35.00;15.98;;;;;;;;;;5085410;28;20026;-66
2021/01/09 05:41:33;;;;;;;36.28;16.88;;;;;;;;;;5084147;28;20047;-66
2021/01/09 05:44:08;;;;;;;31.33;15.13;;;5.20;62.70;;;;;;5087447;28;20024;-64
2021/01/09 05:46:36;;;;;;;37.95;16.30;;;5.20;62.70;;;;;;5083466;28;20040;-66
2021/01/09 05:49:04;;;;;;;39.45;17.65;;;5.20;62.60;;;;;;5086713;28;20028;-65
2021/01/09 05:51:32;;;;;;;35.40;16.92;;;5.20;62.60;;;;;;5076751;28;20028;-65
2021/01/09 05:53:58;;;;;;;33.05;16.95;;;;;;;;;;5086743;28;20425;-67
2021/01/09 05:56:24;;;;;;;31.70;16.25;;;;;;;;;;5082899;28;20035;-67
2021/01/09 05:58:51;;;;;;;31.65;17.15;;;5.40;62.30;;;;;;5086568;28;20504;-64
2021/01/09 06:01:23;;;;;;;33.65;16.00;;;5.30;62.20;;;;;;5084248;28;20036;-66
2021/01/09 06:04:07;;;;;;;28.77;16.02;;;5.40;62.20;;;;;;5084413;28;20043;-64
2021/01/09 06:06:41;;;;;;;30.80;14.90;;;5.40;62.20;;;;;;5082673;28;20502;-66
2021/01/09 06:09:10;;;;;;;35.05;14.63;;;5.30;62.10;;;;;;5077420;28;20426;-65
2021/01/09 06:11:36;;;;;;;32.08;15.23;;;;;;;;;;5083223;28;20030;-67
2021/01/09 06:14:04;;;;;;;27.92;15.65;;;5.30;62.20;;;;;;5080724;28;20056;-66
2021/01/09 06:16:33;;;;;;;34.72;16.00;;;5.30;62.30;;;;;;5070797;28;20440;-66
2021/01/09 06:19:00;;;;;;;30.25;15.88;;;5.30;62.30;;;;;;5071471;28;20402;-67
2021/01/09 06:21:26;;;;;;;;;;;5.20;62.80;;;;;;5071931;28;20060;-66
2021/01/09 06:23:54;;;;;;;31.38;15.30;;;5.30;62.10;;;;;;5071548;28;19924;-63
2021/01/09 06:26:21;;;;;;;28.45;14.48;;;;;;;;;;5071540;28;20037;-65
2021/01/09 06:28:51;;;;;;;29.50;15.57;;;5.40;62.00;;;;;;5071398;28;20060;-66
2021/01/09 06:31:20;;;;;;;32.40;14.52;;;5.40;61.90;;;;;;5071120;28;20048;-65
2021/01/09 06:33:50;;;;;;;35.33;15.90;;;5.70;61.90;;;;;;5071404;28;20040;-65
2021/01/09 06:36:18;;;;;;;31.13;15.13;;;5.20;61.30;;;;;;5071402;28;20040;-65
2021/01/09 06:38:47;;;;;;;51.33;16.35;;;5.30;61.20;;;;;;5071532;28;20387;-66
2021/01/09 06:41:15;;;;;;;34.88;16.50;;;5.40;61.30;;;;;;5071294;28;20051;-66
2021/01/09 06:43:49;;;;;;;36.10;15.73;;;5.40;61.30;;;;;;5071247;28;20513;-66
2021/01/09 06:46:29;;;;;;;46.40;16.50;;;5.40;61.20;;;;;;5070595;28;20043;-65
2021/01/09 06:48:56;;;;;;;52.75;16.88;;;;;;;;;;5071285;28;20036;-66
2021/01/09 06:51:48;;;;;;;79.90;17.08;;;5.40;61.10;;;;;;5071136;28;20033;-65
2021/01/09 06:54:15;;;;;;;101.60;23.48;;;;;;;;;;5067489;28;20056;-66
2021/01/09 06:56:47;;;;;;;106.38;19.92;;;5.40;60.90;;;;;;5071195;28;20036;-66
2021/01/09 06:59:33;;;;;;;135.68;19.23;;;5.30;61.00;;;;;;5052435;28;20048;-63
2021/01/09 07:02:11;;;;;;;196.10;22.15;;;5.20;61.20;;;;;;5071491;28;20016;-65
2021/01/09 07:05:05;;;;;;;111.63;20.45;;;5.10;61.40;;;;;;5081033;28;20036;-64
2021/01/09 07:07:52;;;;;;;139.95;19.92;;;5.10;61.60;;;;;;5080840;28;20455;-63
2021/01/09 07:10:24;;;;;;;47.53;16.70;;;4.90;61.70;;;;;;5070150;28;20037;-65
2021/01/09 07:12:52;;;;;;;97.22;18.50;;;4.90;61.70;;;;;;5082660;28;20032;-66
2021/01/09 07:15:19;;;;;;;98.03;18.23;;;4.90;61.80;;;;;;5071230;28;20089;-66
2021/01/09 07:17:51;;;;;;;58.20;15.68;;;4.80;62.00;;;;;;5075087;28;20025;-66
2021/01/09 07:20:20;;;;;;;49.95;18.15;;;4.80;62.10;;;;;;5074650;28;20039;-65
2021/01/09 07:22:51;;;;;;;80.55;19.35;;;4.80;62.30;;;;;;5074854;28;20051;-67
2021/01/09 07:25:37;;;;;;;60.30;17.50;;;4.90;62.40;;;;;;5074538;28;20064;-66
2021/01/09 07:28:13;;;;;;;73.72;20.60;;;4.80;62.40;;;;;;5074930;28;20791;-67
2021/01/09 07:30:39;;;;;;;51.80;17.73;;;;;;;;;;5074651;28;20403;-66
2021/01/09 07:33:14;;;;;;;82.07;21.95;;;4.80;62.20;;;;;;5079300;28;20040;-66
2021/01/09 07:35:42;;;;;;;46.88;18.20;;;4.90;62.20;;;;;;5078865;28;20024;-66
2021/01/09 07:38:08;;;;;;;40.58;18.00;;;;;;;;;;5078981;28;20442;-67
2021/01/09 07:40:46;;;;;;;39.75;18.00;;;4.60;62.10;;;;;;5083137;28;20024;-66
2021/01/09 07:43:34;;;;;;;58.75;17.88;;;4.80;62.00;;;;;;5070738;28;20033;-66
2021/01/09 07:46:01;;;;;;;38.03;15.90;;;4.90;62.20;;;;;;5078601;28;20058;-66
2021/01/09 07:48:37;;;;;;;;;;;4.80;62.60;;;;;;5079403;28;20034;-66
2021/01/09 07:51:03;;;;;;;44.10;17.15;;;;;;;;;;5078456;28;19908;-66
2021/01/09 07:53:29;;;;;;;33.67;14.82;;;;;;;;;;5078365;28;20036;-64
2021/01/09 07:55:57;;;;;;;35.60;15.82;;;;;;;;;;5082516;28;20337;-65
2021/01/09 07:58:42;;;;;;;44.60;16.52;;;4.90;61.60;;;;;;5078325;28;20067;-68
2021/01/09 08:01:09;;;;;;;41.87;16.70;;;;;;;;;;5082663;28;20086;-66
2021/01/09 08:03:37;;;;;;;31.85;16.05;;;4.00;61.40;;;;;;5078551;28;20302;-66
2021/01/09 08:06:03;;;;;;;37.38;16.98;;;;;;;;;;5082241;28;20036;-66
2021/01/09 08:08:30;;;;;;;33.88;16.83;;;4.80;61.70;;;;;;5078077;28;20020;-67
2021/01/09 08:10:56;;;;;;;33.63;15.63;;;;;;;;;;5080631;28;20048;-66
2021/01/09 08:13:23;;;;;;;34.53;15.93;;;;;;;;;;5079483;28;20016;-66
2021/01/09 08:15:49;;;;;;;29.38;14.98;;;;;;;;;;5059997;28;20472;-66
2021/01/09 08:18:15;;;;;;;;;;;4.80;61.70;;;;;;5074284;28;20029;-66
2021/01/09 08:20:42;;;;;;;30.48;16.05;;;;;;;;;;5073425;28;19954;-66
2021/01/09 08:23:08;;;;;;;34.53;15.77;;;;;;;;;;5073452;28;20400;-67
2021/01/09 08:25:38;;;;;;;34.15;16.83;;;4.90;61.70;;;;;;5073508;28;20549;-66
2021/01/09 08:28:05;;;;;;;30.08;15.50;;;4.90;61.70;;;;;;5071861;28;20017;-67
2021/01/09 08:30:31;;;;;;;26.90;16.15;;;;;;;;;;5073473;28;20056;-66
2021/01/09 08:33:06;;;;;;;32.10;16.83;;;4.90;61.80;;;;;;5073467;28;20060;-66
2021/01/09 08:35:32;;;;;;;34.35;17.35;;;;;;;;;;5073109;28;20051;-64
2021/01/09 08:37:59;;;;;;;30.75;16.27;;;5.00;61.80;;;;;;5073597;28;20092;-66
2021/01/09 08:40:25;;;;;;;;;;;5.00;62.30;;;;;;5073758;28;20067;-66
2021/01/09 08:43:00;;;;;;;29.23;15.02;;;5.10;61.50;;;;;;5070971;28;19912;-65
2021/01/09 08:45:38;;;;;;;31.25;16.30;;;5.10;61.50;;;;;;5073390;28;20032;-68
2021/01/09 08:48:05;;;;;;;32.65;16.35;;;;;;;;;;5073033;28;20369;-65
2021/01/09 08:50:32;;;;;;;35.50;17.15;;;;;;;;;;5073091;28;20041;-65
2021/01/09 08:53:04;;;;;;;42.85;17.75;;;5.10;61.60;;;;;;5072840;28;20031;-66
2021/01/09 08:55:31;;;;;;;37.92;17.75;;;;;;;;;;5073346;28;20045;-66
2021/01/09 08:58:00;;;;;;;32.60;17.08;;;5.10;61.80;;;;;;5072264;28;20020;-66
2021/01/09 09:00:27;;;;;;;33.67;16.67;;;;;;;;;;5072928;28;20058;-66
2021/01/09 09:02:55;;;;;;;36.70;18.35;;;5.20;62.00;;;;;;5072481;28;20101;-66
2021/01/09 09:05:26;;;;;;;36.28;17.75;;;5.20;62.00;;;;;;5072695;28;20392;-69
2021/01/09 09:07:56;;;;;;;40.25;17.55;;;5.20;62.00;;;;;;5072761;28;20024;-67
2021/01/09 09:10:24;;;;;;;34.83;17.23;;;5.70;62.40;;;;;;5068152;28;20024;-68
2021/01/09 09:12:51;;;;;;;39.00;19.73;;;;;;;;;;5072261;28;20465;-67
2021/01/09 09:15:29;;;;;;;38.42;19.83;;;5.40;62.30;;;;;;5084741;28;20028;-67
2021/01/09 09:17:56;;;;;;;35.97;20.23;;;;;;;;;;5085737;28;20028;-66
2021/01/09 09:20:25;;;;;;;48.30;22.88;;;5.50;62.60;;;;;;5076377;28;20028;-66
2021/01/09 09:22:54;;;;;;;55.22;24.48;;;5.50;62.70;;;;;;5072024;28;20483;-68
2021/01/09 09:25:26;;;;;;;48.90;22.67;;;5.70;62.90;;;;;;5070495;28;20060;-68
2021/01/09 09:28:02;;;;;;;44.63;21.50;;;5.90;62.90;;;;;;5071950;28;20040;-67
2021/01/09 09:30:28;;;;;;;47.25;22.90;;;;;;;;;;5053511;28;20466;-65
2021/01/09 09:32:55;;;;;;;42.85;22.27;;;;;;;;;;5054127;28;20041;-67
2021/01/09 09:35:28;;;;;;;44.38;22.45;;;6.00;62.70;;;;;;5071576;28;20029;-67
2021/01/09 09:37:58;;;;;;;40.58;22.67;;;6.10;62.60;;;;;;5057672;28;20026;-67
2021/01/09 09:40:30;;;;;;;44.25;23.15;;;6.20;62.50;;;;;;5070215;28;20070;-67
2021/01/09 09:43:14;;;;;;;44.05;22.40;;;6.30;62.60;;;;;;5085360;28;20027;-68
2021/01/09 09:45:57;;;;;;;42.28;22.10;;;6.40;62.20;;;;;;5089066;28;20036;-67
2021/01/09 09:48:29;;;;;;;46.55;24.38;;;6.40;61.80;;;;;;5088282;28;20486;-67
2021/01/09 09:51:21;;;;;;;45.08;22.75;;;6.40;62.20;;;;;;5087483;28;20133;-68
2021/01/09 09:53:54;;;;;;;47.58;23.25;;;6.40;62.30;;;;;;5075479;28;20055;-67
2021/01/09 09:56:24;;;;;;;46.75;23.23;;;6.40;62.20;;;;;;5079801;28;20101;-68
2021/01/09 09:59:01;;;;;;;41.75;22.50;;;6.50;62.10;;;;;;5084113;28;20056;-67
2021/01/09 10:01:29;;;;;;;51.13;23.75;;;;;;;;;;5083346;28;20480;-67
2021/01/09 10:03:56;;;;;;;43.28;23.33;;;;;;;;;;5073940;28;20099;-69
2021/01/09 10:06:22;;;;;;;;;;;6.60;62.00;;;;;;5077793;28;20071;-67
2021/01/09 10:08:48;;;;;;;44.95;21.63;;;;;;;;;;5073286;28;19908;-67
2021/01/09 10:11:15;;;;;;;42.10;22.60;;;;;;;;;;5077284;28;20108;-67
2021/01/09 10:13:42;;;;;;;40.90;23.23;;;;;;;;;;5074067;28;20039;-67
2021/01/09 10:16:09;;;;;;;47.25;24.27;;;;;;;;;;5071251;28;20067;-67
2021/01/09 10:18:35;;;;;;;41.45;22.92;;;;;;;;;;5070740;28;20449;-67
2021/01/09 10:21:03;;;;;;;38.78;22.70;;;;;;;;;;5071286;28;20116;-67
2021/01/09 10:23:29;;;;;;;42.65;22.52;;;;;;;;;;5070338;28;20033;-67
2021/01/09 10:25:56;;;;;;;40.13;23.50;;;;;;;;;;5070605;28;20040;-66
2021/01/09 10:28:25;;;;;;;;;;;6.60;61.60;;;;;;5071457;28;20082;-67
2021/01/09 10:30:51;;;;;;;45.20;26.63;;;;;;;;;;5070410;28;20305;-67
2021/01/09 10:33:17;;;;;;;45.60;26.95;;;;;;;;;;5070064;28;20040;-71
2021/01/09 10:35:48;;;;;;;47.13;26.52;;;7.10;62.50;;;;;;5070744;28;20050;-69
2021/01/09 10:38:14;;;;;;;37.92;20.98;;;;;;;;;;5070431;28;20032;-70
2021/01/09 10:40:42;;;;;;;29.45;18.77;;;7.50;61.90;;;;;;5069801;28;20032;-71
2021/01/09 10:43:09;;;;;;;29.98;16.58;;;;;;;;;;5070810;28;20033;-67
2021/01/09 10:45:35;;;;;;;24.13;14.98;;;;;;;;;;5070441;28;20040;-69
2021/01/09 10:48:01;;;;;;;29.35;16.58;;;;;;;;;;5070708;28;20094;-67
2021/01/09 10:50:28;;;;;;;26.65;14.90;;;;;;;;;;5070516;28;20439;-68
2021/01/09 10:52:54;;;;;;;24.58;14.07;;;;;;;;;;5070341;28;20032;-69
2021/01/09 10:55:20;;;;;;;24.95;13.45;;;;;;;;;;5070431;28;20078;-68
2021/01/09 10:57:46;;;;;;;38.65;14.60;;;;;;;;;;5070563;28;20035;-69
2021/01/09 11:00:15;;;;;;;24.30;12.20;;;;;;;;;;5070507;28;20059;-69
2021/01/09 11:02:44;;;;;;;25.95;11.38;;;;;;;;;;5070234;28;20032;-69
2021/01/09 11:05:11;;;;;;;21.67;10.85;;;;;;;;;;5070352;28;20120;-68
2021/01/09 11:07:37;;;;;;;18.08;10.85;;;;;;;;;;5070059;28;20040;-68
2021/01/09 11:10:05;;;;;;;20.38;12.55;;;8.90;58.00;;;;;;5069865;28;20114;-67
2021/01/09 11:12:31;;;;;;;23.40;12.48;;;;;;;;;;5070707;28;20032;-68
2021/01/09 11:14:57;;;;;;;27.73;10.85;;;;;;;;;;5070058;28;20139;-68
2021/01/09 11:17:24;;;;;;;15.55;9.77;;;;;;;;;;5070186;28;20476;-66
2021/01/09 11:19:50;;;;;;;18.48;11.27;;;;;;;;;;5070643;28;20036;-66
2021/01/09 11:22:16;;;;;;;15.88;8.52;;;;;;;;;;5069908;28;20468;-66
2021/01/09 11:24:43;;;;;;;20.30;8.82;;;;;;;;;;5085245;28;20044;-66
2021/01/09 11:27:09;;;;;;;15.07;8.55;;;;;;;;;;5070310;28;20040;-65
2021/01/09 11:29:35;;;;;;;18.10;8.70;;;;;;;;;;5070310;28;20054;-66
2021/01/09 11:32:03;;;;;;;20.67;9.20;;;10.60;53.60;;;;;;5070258;28;20029;-68
2021/01/09 11:34:30;;;;;;;19.08;7.93;;;;;;;;;;5069603;28;20392;-69
2021/01/09 11:36:56;;;;;;;14.45;8.18;;;;;;;;;;5069851;28;20108;-65
2021/01/09 11:39:23;;;;;;;14.63;8.20;;;;;;;;;;5069564;28;20047;-65
2021/01/09 11:41:49;;;;;;;16.90;9.38;;;;;;;;;;5070358;28;20421;-66
2021/01/09 11:44:16;;;;;;;16.48;7.80;;;10.80;52.90;;;;;;5055700;28;20079;-65
2021/01/09 11:46:42;;;;;;;14.50;7.35;;;;;;;;;;5069852;28;20025;-66
2021/01/09 11:49:08;;;;;;;11.35;5.88;;;;;;;;;;5070264;28;20036;-66
2021/01/09 11:51:35;;;;;;;8.32;5.80;;;;;;;;;;5069371;28;20028;-68
2021/01/09 11:54:01;;;;;;;11.10;5.47;;;;;;;;;;5077192;28;20043;-66
2021/01/09 11:56:28;;;;;;;20.77;5.32;;;;;;;;;;5087019;28;20028;-65
2021/01/09 11:58:54;;;;;;;13.25;5.70;;;;;;;;;;5070550;28;20032;-64
2021/01/09 12:01:20;;;;;;;13.65;5.38;;;;;;;;;;5087758;28;20120;-65
2021/01/09 12:03:46;;;;;;;15.65;5.30;;;;;;;;;;5091823;28;20032;-66
2021/01/09 12:06:17;;;;;;;13.18;5.40;;;10.80;55.40;;;;;;5076493;28;20060;-65
2021/01/09 12:08:43;;;;;;;9.57;5.65;;;;;;;;;;5074438;28;20452;-66
2021/01/09 12:11:09;;;;;;;10.27;5.32;;;;;;;;;;5081245;28;20056;-66
2021/01/09 12:13:36;;;;;;;10.00;5.40;;;11.00;54.50;;;;;;5063138;28;20907;-65
2021/01/09 12:16:03;;;;;;;;;;;11.10;54.70;;;;;;5080418;28;20089;-65
2021/01/09 12:18:29;;;;;;;;;;;11.00;54.90;;;;;;5079818;28;19916;-65
2021/01/09 12:20:55;;;;;;;13.38;5.55;;;;;;;;;;5073279;28;19921;-67
2021/01/09 12:23:21;;;;;;;11.40;6.43;;;;;;;;;;5089095;28;20368;-67
2021/01/09 12:25:48;;;;;;;17.10;6.40;;;;;;;;;;5085471;28;20021;-66
2021/01/09 12:28:14;;;;;;;14.52;6.93;;;;;;;;;;5071495;28;20039;-66
2021/01/09 12:30:40;;;;;;;13.13;6.07;;;;;;;;;;5087008;28;20039;-66
2021/01/09 12:33:07;;;;;;;15.45;5.43;;;;;;;;;;5087633;28;20082;-65
2021/01/09 12:35:33;;;;;;;;;;;11.40;52.70;;;;;;5088448;28;20035;-65
2021/01/09 12:37:59;;;;;;;14.65;7.78;;;;;;;;;;5073410;28;20007;-66
2021/01/09 12:40:25;;;;;;;20.70;6.40;;;;;;;;;;5082335;28;20024;-65
2021/01/09 12:42:52;;;;;;;13.77;6.47;;;;;;;;;;5080568;28;20033;-66
2021/01/09 12:45:18;;;;;;;14.52;6.28;;;;;;;;;;5082463;28;20119;-66
2021/01/09 12:47:47;;;;;;;12.88;6.18;;;11.20;53.50;;;;;;5081935;28;20139;-65
2021/01/09 12:50:13;;;;;;;17.02;5.82;;;;;;;;;;5080912;28;20361;-67
2021/01/09 12:52:39;;;;;;;11.75;5.75;;;;;;;;;;5083947;28;20024;-65
2021/01/09 12:55:06;;;;;;;12.00;6.55;;;;;;;;;;5079165;28;20037;-65
2021/01/09 12:57:32;;;;;;;14.90;6.35;;;;;;;;;;5088417;28;20032;-65
2021/01/09 12:59:58;;;;;;;15.18;6.43;;;;;;;;;;5066222;28;20028;-65
2021/01/09 13:02:25;;;;;;;10.80;6.03;;;;;;;;;;5083745;28;20757;-67
2021/01/09 13:04:51;;;;;;;10.73;5.80;;;;;;;;;;4378671;28;10000702;-67
2021/01/09 13:07:17;;;;;;;16.63;5.57;;;;;;;;;;5080059;28;20058;-65
2021/01/09 13:09:44;;;;;;;13.43;5.22;;;;;;;;;;5073459;28;20440;-65
2021/01/09 13:12:10;;;;;;;12.82;4.95;;;;;;;;;;5078221;28;20039;-66
2021/01/09 13:14:36;;;;;;;13.63;5.80;;;;;;;;;;5075136;28;20032;-66
2021/01/09 13:17:04;;;;;;;13.68;5.43;;;;;;;;;;5068922;28;20036;-65
2021/01/09 13:19:33;;;;;;;16.75;5.28;;;;;;;;;;5070102;28;20025;-65
2021/01/09 13:22:00;;;;;;;11.23;4.50;;;;;;;;;;5069850;28;20040;-68
2021/01/09 13:24:26;;;;;;;11.80;4.75;;;;;;;;;;5069541;28;20388;-67
2021/01/09 13:26:53;;;;;;;10.20;4.55;;;;;;;;;;5068889;28;20033;-68
2021/01/09 13:29:19;;;;;;;10.27;4.60;;;;;;;;;;5069381;28;20083;-67
2021/01/09 13:31:46;;;;;;;13.60;4.20;;;;;;;;;;5073906;28;20054;-65
2021/01/09 13:34:12;;;;;;;9.75;4.00;;;;;;;;;;5069029;28;20036;-65
2021/01/09 13:36:42;;;;;;;12.20;4.53;;;12.10;51.00;;;;;;5069543;28;20040;-65
2021/01/09 13:39:09;;;;;;;11.57;4.43;;;12.10;50.50;;;;;;5068144;28;20191;-66
2021/01/09 13:41:36;;;;;;;13.85;5.20;;;;;;;;;;5069395;28;20083;-66
2021/01/09 13:44:03;;;;;;;17.52;5.15;;;12.00;51.20;;;;;;5069045;28;20112;-66